sensor_id;sensor_type;location;lat;lon;timestamp;P1;durP1;ratioP1;P2;durP2;ratioP2
3321;SDS011;1673;51.388;7.086;2022-10-15T00:01:51;28.67;;;14.27;;
3321;SDS011;1673;51.388;7.086;2022-10-15T00:04:23;23.30;;;12.90;;
3321;SDS011;1673;51.388;7.086;2022-10-15T00:06:52;21.23;;;13.13;;
3321;SDS011;1673;51.388;7.086;2022-10-15T00:09:22;26.58;;;14.27;;
3321;SDS011;1673;51.388;7.086;2022-10-15T00:11:52;24.67;;;13.63;;
3321;SDS011;1673;51.388;7.086;2022-10-15T00:14:22;22.45;;;13.00;;
3321;SDS011;1673;51.388;7.086;2022-10-15T00:16:51;25.80;;;13.70;;
3321;SDS011;1673;51.388;7.086;2022-10-15T00:19:23;25.47;;;14.00;;
3321;SDS011;1673;51.388;7.086;2022-10-15T00:21:53;28.52;;;16.60;;
3321;SDS011;1673;51.388;7.086;2022-10-15T00:24:22;35.17;;;18.20;;
3321;SDS011;1673;51.388;7.086;2022-10-15T00:26:52;30.85;;;17.13;;
3321;SDS011;1673;51.388;7.086;2022-10-15T00:29:22;27.60;;;15.90;;
3321;SDS011;1673;51.388;7.086;2022-10-15T00:31:53;28.13;;;17.25;;
3321;SDS011;1673;51.388;7.086;2022-10-15T00:34:25;30.35;;;17.35;;
3321;SDS011;1673;51.388;7.086;2022-10-15T00:36:57;31.52;;;16.73;;
3321;SDS011;1673;51.388;7.086;2022-10-15T00:39:26;31.67;;;18.05;;
3321;SDS011;1673;51.388;7.086;2022-10-15T00:41:56;30.70;;;16.97;;
3321;SDS011;1673;51.388;7.086;2022-10-15T00:47:26;39.15;;;16.15;;
3321;SDS011;1673;51.388;7.086;2022-10-15T00:50:03;30.40;;;16.73;;
3321;SDS011;1673;51.388;7.086;2022-10-15T00:52:36;33.97;;;17.10;;
3321;SDS011;1673;51.388;7.086;2022-10-15T00:55:09;34.92;;;18.13;;
3321;SDS011;1673;51.388;7.086;2022-10-15T00:57:41;37.80;;;18.20;;
3321;SDS011;1673;51.388;7.086;2022-10-15T01:00:12;30.97;;;16.90;;
3321;SDS011;1673;51.388;7.086;2022-10-15T01:02:43;28.03;;;16.53;;
3321;SDS011;1673;51.388;7.086;2022-10-15T01:05:17;24.40;;;15.75;;
3321;SDS011;1673;51.388;7.086;2022-10-15T01:07:47;25.25;;;15.70;;
3321;SDS011;1673;51.388;7.086;2022-10-15T01:10:17;24.65;;;14.48;;
3321;SDS011;1673;51.388;7.086;2022-10-15T01:12:51;26.38;;;15.90;;
3321;SDS011;1673;51.388;7.086;2022-10-15T01:15:24;21.05;;;13.35;;
3321;SDS011;1673;51.388;7.086;2022-10-15T01:17:58;27.02;;;16.33;;
3321;SDS011;1673;51.388;7.086;2022-10-15T01:20:40;24.30;;;15.43;;
3321;SDS011;1673;51.388;7.086;2022-10-15T01:29:32;29.67;;;16.90;;
3321;SDS011;1673;51.388;7.086;2022-10-15T01:32:20;31.98;;;16.90;;
3321;SDS011;1673;51.388;7.086;2022-10-15T01:34:55;30.30;;;15.57;;
3321;SDS011;1673;51.388;7.086;2022-10-15T01:37:31;27.35;;;16.52;;
3321;SDS011;1673;51.388;7.086;2022-10-15T01:40:06;28.85;;;17.27;;
3321;SDS011;1673;51.388;7.086;2022-10-15T01:42:40;28.87;;;16.53;;
3321;SDS011;1673;51.388;7.086;2022-10-15T01:45:15;22.90;;;15.68;;
3321;SDS011;1673;51.388;7.086;2022-10-15T01:48:25;31.38;;;17.25;;
3321;SDS011;1673;51.388;7.086;2022-10-15T01:50:58;29.65;;;18.20;;
3321;SDS011;1673;51.388;7.086;2022-10-15T01:53:30;32.42;;;18.13;;
3321;SDS011;1673;51.388;7.086;2022-10-15T01:56:03;28.40;;;17.13;;
3321;SDS011;1673;51.388;7.086;2022-10-15T01:58:35;28.45;;;17.50;;
3321;SDS011;1673;51.388;7.086;2022-10-15T02:01:07;26.50;;;17.38;;
3321;SDS011;1673;51.388;7.086;2022-10-15T02:03:47;34.72;;;19.70;;
3321;SDS011;1673;51.388;7.086;2022-10-15T02:06:18;30.73;;;19.67;;
3321;SDS011;1673;51.388;7.086;2022-10-15T02:08:55;44.63;;;19.58;;
3321;SDS011;1673;51.388;7.086;2022-10-15T02:11:28;33.28;;;18.83;;
3321;SDS011;1673;51.388;7.086;2022-10-15T02:13:59;34.45;;;19.80;;
3321;SDS011;1673;51.388;7.086;2022-10-15T02:16:30;30.60;;;17.75;;
3321;SDS011;1673;51.388;7.086;2022-10-15T02:19:10;36.75;;;20.50;;
3321;SDS011;1673;51.388;7.086;2022-10-15T02:21:43;33.27;;;19.97;;
3321;SDS011;1673;51.388;7.086;2022-10-15T02:24:16;37.75;;;18.10;;
3321;SDS011;1673;51.388;7.086;2022-10-15T02:26:48;31.50;;;17.02;;
3321;SDS011;1673;51.388;7.086;2022-10-15T02:29:20;29.85;;;17.23;;
3321;SDS011;1673;51.388;7.086;2022-10-15T02:31:52;32.35;;;18.63;;
3321;SDS011;1673;51.388;7.086;2022-10-15T02:34:27;31.57;;;19.00;;
3321;SDS011;1673;51.388;7.086;2022-10-15T02:37:00;39.20;;;20.23;;
3321;SDS011;1673;51.388;7.086;2022-10-15T02:39:32;36.50;;;20.13;;
3321;SDS011;1673;51.388;7.086;2022-10-15T02:42:02;34.40;;;18.92;;
3321;SDS011;1673;51.388;7.086;2022-10-15T02:44:32;35.88;;;21.27;;
3321;SDS011;1673;51.388;7.086;2022-10-15T02:47:01;40.07;;;21.47;;
3321;SDS011;1673;51.388;7.086;2022-10-15T02:49:34;35.75;;;19.30;;
3321;SDS011;1673;51.388;7.086;2022-10-15T02:52:04;37.33;;;21.13;;
3321;SDS011;1673;51.388;7.086;2022-10-15T02:54:34;36.90;;;19.58;;
3321;SDS011;1673;51.388;7.086;2022-10-15T02:57:03;35.85;;;19.95;;
3321;SDS011;1673;51.388;7.086;2022-10-15T02:59:33;40.10;;;22.67;;
3321;SDS011;1673;51.388;7.086;2022-10-15T03:02:03;40.70;;;23.65;;
3321;SDS011;1673;51.388;7.086;2022-10-15T03:04:36;41.50;;;21.67;;
3321;SDS011;1673;51.388;7.086;2022-10-15T03:07:05;44.28;;;23.50;;
3321;SDS011;1673;51.388;7.086;2022-10-15T03:09:35;48.83;;;26.42;;
3321;SDS011;1673;51.388;7.086;2022-10-15T03:12:05;50.92;;;27.20;;
3321;SDS011;1673;51.388;7.086;2022-10-15T03:14:35;62.22;;;30.10;;
3321;SDS011;1673;51.388;7.086;2022-10-15T03:17:05;62.35;;;31.95;;
3321;SDS011;1673;51.388;7.086;2022-10-15T03:19:37;71.47;;;32.97;;
3321;SDS011;1673;51.388;7.086;2022-10-15T03:22:06;65.75;;;30.48;;
3321;SDS011;1673;51.388;7.086;2022-10-15T03:24:46;64.28;;;31.30;;
3321;SDS011;1673;51.388;7.086;2022-10-15T03:27:21;65.13;;;34.07;;
3321;SDS011;1673;51.388;7.086;2022-10-15T03:29:52;59.88;;;31.05;;
3321;SDS011;1673;51.388;7.086;2022-10-15T03:32:24;60.58;;;30.25;;
3321;SDS011;1673;51.388;7.086;2022-10-15T03:34:59;69.10;;;34.63;;
3321;SDS011;1673;51.388;7.086;2022-10-15T03:37:31;65.43;;;32.13;;
3321;SDS011;1673;51.388;7.086;2022-10-15T03:40:01;59.22;;;32.47;;
3321;SDS011;1673;51.388;7.086;2022-10-15T03:42:37;60.70;;;32.20;;
3321;SDS011;1673;51.388;7.086;2022-10-15T03:45:08;63.13;;;33.00;;
3321;SDS011;1673;51.388;7.086;2022-10-15T03:47:38;58.60;;;29.70;;
3321;SDS011;1673;51.388;7.086;2022-10-15T03:50:11;51.15;;;28.23;;
3321;SDS011;1673;51.388;7.086;2022-10-15T03:52:41;61.43;;;29.20;;
3321;SDS011;1673;51.388;7.086;2022-10-15T03:55:12;58.88;;;30.70;;
3321;SDS011;1673;51.388;7.086;2022-10-15T03:57:43;59.85;;;31.48;;
3321;SDS011;1673;51.388;7.086;2022-10-15T04:00:13;58.85;;;30.05;;
3321;SDS011;1673;51.388;7.086;2022-10-15T04:02:47;69.97;;;35.33;;
3321;SDS011;1673;51.388;7.086;2022-10-15T04:05:26;66.07;;;33.60;;
3321;SDS011;1673;51.388;7.086;2022-10-15T04:08:01;66.95;;;33.92;;
3321;SDS011;1673;51.388;7.086;2022-10-15T04:10:35;75.70;;;35.60;;
3321;SDS011;1673;51.388;7.086;2022-10-15T04:13:05;81.88;;;36.22;;
3321;SDS011;1673;51.388;7.086;2022-10-15T04:15:37;76.70;;;34.97;;
3321;SDS011;1673;51.388;7.086;2022-10-15T04:18:10;83.45;;;39.35;;
3321;SDS011;1673;51.388;7.086;2022-10-15T04:20:43;76.20;;;37.63;;
3321;SDS011;1673;51.388;7.086;2022-10-15T04:23:18;81.85;;;39.40;;
3321;SDS011;1673;51.388;7.086;2022-10-15T04:26:07;84.57;;;39.88;;
3321;SDS011;1673;51.388;7.086;2022-10-15T04:28:36;78.80;;;38.70;;
3321;SDS011;1673;51.388;7.086;2022-10-15T04:31:06;59.53;;;30.90;;
3321;SDS011;1673;51.388;7.086;2022-10-15T04:33:38;60.70;;;30.70;;
3321;SDS011;1673;51.388;7.086;2022-10-15T04:36:11;70.15;;;35.35;;
3321;SDS011;1673;51.388;7.086;2022-10-15T04:39:06;74.45;;;35.15;;
3321;SDS011;1673;51.388;7.086;2022-10-15T04:41:41;65.03;;;32.50;;
3321;SDS011;1673;51.388;7.086;2022-10-15T04:44:24;67.03;;;35.10;;
3321;SDS011;1673;51.388;7.086;2022-10-15T04:46:55;67.40;;;34.28;;
3321;SDS011;1673;51.388;7.086;2022-10-15T04:49:43;66.17;;;33.93;;
3321;SDS011;1673;51.388;7.086;2022-10-15T04:52:37;69.82;;;32.15;;
3321;SDS011;1673;51.388;7.086;2022-10-15T04:55:10;70.37;;;35.17;;
3321;SDS011;1673;51.388;7.086;2022-10-15T04:57:39;71.07;;;36.10;;
3321;SDS011;1673;51.388;7.086;2022-10-15T05:00:10;68.93;;;36.30;;
3321;SDS011;1673;51.388;7.086;2022-10-15T05:02:41;66.70;;;34.55;;
3321;SDS011;1673;51.388;7.086;2022-10-15T05:05:27;62.83;;;33.63;;
3321;SDS011;1673;51.388;7.086;2022-10-15T05:08:03;59.93;;;32.50;;
3321;SDS011;1673;51.388;7.086;2022-10-15T05:10:53;65.90;;;33.08;;
3321;SDS011;1673;51.388;7.086;2022-10-15T05:13:22;70.97;;;36.45;;
3321;SDS011;1673;51.388;7.086;2022-10-15T05:15:53;70.65;;;36.17;;
3321;SDS011;1673;51.388;7.086;2022-10-15T05:18:23;65.82;;;34.78;;
3321;SDS011;1673;51.388;7.086;2022-10-15T05:20:52;73.18;;;36.30;;
3321;SDS011;1673;51.388;7.086;2022-10-15T05:23:25;70.88;;;36.17;;
3321;SDS011;1673;51.388;7.086;2022-10-15T05:26:09;72.47;;;38.80;;
3321;SDS011;1673;51.388;7.086;2022-10-15T05:28:40;63.90;;;33.87;;
3321;SDS011;1673;51.388;7.086;2022-10-15T05:31:20;67.70;;;36.47;;
3321;SDS011;1673;51.388;7.086;2022-10-15T05:33:58;66.53;;;36.10;;
3321;SDS011;1673;51.388;7.086;2022-10-15T05:36:33;67.97;;;34.67;;
3321;SDS011;1673;51.388;7.086;2022-10-15T05:39:06;64.80;;;34.22;;
3321;SDS011;1673;51.388;7.086;2022-10-15T05:41:42;69.43;;;35.65;;
3321;SDS011;1673;51.388;7.086;2022-10-15T05:44:12;60.42;;;31.75;;
3321;SDS011;1673;51.388;7.086;2022-10-15T05:46:42;64.35;;;34.10;;
3321;SDS011;1673;51.388;7.086;2022-10-15T05:49:18;68.75;;;35.50;;
3321;SDS011;1673;51.388;7.086;2022-10-15T05:52:06;65.05;;;35.85;;
3321;SDS011;1673;51.388;7.086;2022-10-15T05:55:00;67.13;;;34.90;;
3321;SDS011;1673;51.388;7.086;2022-10-15T05:57:29;60.83;;;33.80;;
3321;SDS011;1673;51.388;7.086;2022-10-15T06:00:02;58.22;;;31.88;;
3321;SDS011;1673;51.388;7.086;2022-10-15T06:02:38;59.90;;;33.88;;
3321;SDS011;1673;51.388;7.086;2022-10-15T06:05:08;57.85;;;32.45;;
3321;SDS011;1673;51.388;7.086;2022-10-15T06:07:37;60.72;;;32.47;;
3321;SDS011;1673;51.388;7.086;2022-10-15T06:10:10;54.88;;;30.35;;
3321;SDS011;1673;51.388;7.086;2022-10-15T06:12:39;55.75;;;31.27;;
3321;SDS011;1673;51.388;7.086;2022-10-15T06:15:09;53.13;;;29.80;;
3321;SDS011;1673;51.388;7.086;2022-10-15T06:17:39;50.10;;;28.23;;
3321;SDS011;1673;51.388;7.086;2022-10-15T06:20:09;56.28;;;29.05;;
3321;SDS011;1673;51.388;7.086;2022-10-15T06:22:39;53.03;;;31.40;;
3321;SDS011;1673;51.388;7.086;2022-10-15T06:25:12;55.60;;;31.08;;
3321;SDS011;1673;51.388;7.086;2022-10-15T06:27:41;56.28;;;32.63;;
3321;SDS011;1673;51.388;7.086;2022-10-15T06:30:11;54.17;;;30.88;;
3321;SDS011;1673;51.388;7.086;2022-10-15T06:32:45;58.45;;;32.03;;
3321;SDS011;1673;51.388;7.086;2022-10-15T06:35:15;54.90;;;30.25;;
3321;SDS011;1673;51.388;7.086;2022-10-15T06:37:46;55.30;;;31.55;;
3321;SDS011;1673;51.388;7.086;2022-10-15T06:40:18;57.20;;;30.80;;
3321;SDS011;1673;51.388;7.086;2022-10-15T06:42:48;54.63;;;29.05;;
3321;SDS011;1673;51.388;7.086;2022-10-15T06:45:17;56.70;;;32.35;;
3321;SDS011;1673;51.388;7.086;2022-10-15T06:47:47;57.65;;;31.30;;
3321;SDS011;1673;51.388;7.086;2022-10-15T06:50:17;54.42;;;31.92;;
3321;SDS011;1673;51.388;7.086;2022-10-15T06:52:46;54.95;;;31.05;;
3321;SDS011;1673;51.388;7.086;2022-10-15T06:55:18;52.90;;;31.75;;
3321;SDS011;1673;51.388;7.086;2022-10-15T06:57:48;59.10;;;32.78;;
3321;SDS011;1673;51.388;7.086;2022-10-15T07:00:21;54.10;;;31.77;;
3321;SDS011;1673;51.388;7.086;2022-10-15T07:02:52;57.70;;;33.47;;
3321;SDS011;1673;51.388;7.086;2022-10-15T07:05:22;64.57;;;34.85;;
3321;SDS011;1673;51.388;7.086;2022-10-15T07:07:51;62.90;;;33.83;;
3321;SDS011;1673;51.388;7.086;2022-10-15T07:10:25;57.23;;;32.60;;
3321;SDS011;1673;51.388;7.086;2022-10-15T07:12:57;63.60;;;35.28;;
3321;SDS011;1673;51.388;7.086;2022-10-15T07:15:28;59.37;;;33.87;;
3321;SDS011;1673;51.388;7.086;2022-10-15T07:17:58;57.47;;;33.33;;
3321;SDS011;1673;51.388;7.086;2022-10-15T07:20:29;54.65;;;31.50;;
3321;SDS011;1673;51.388;7.086;2022-10-15T07:23:00;57.25;;;31.98;;
3321;SDS011;1673;51.388;7.086;2022-10-15T07:25:35;60.47;;;31.50;;
3321;SDS011;1673;51.388;7.086;2022-10-15T07:28:04;53.27;;;30.87;;
3321;SDS011;1673;51.388;7.086;2022-10-15T07:30:34;56.05;;;31.05;;
3321;SDS011;1673;51.388;7.086;2022-10-15T07:33:04;53.92;;;30.35;;
3321;SDS011;1673;51.388;7.086;2022-10-15T07:35:33;52.20;;;30.10;;
3321;SDS011;1673;51.388;7.086;2022-10-15T07:38:05;56.80;;;31.90;;
3321;SDS011;1673;51.388;7.086;2022-10-15T07:40:37;53.90;;;30.80;;
3321;SDS011;1673;51.388;7.086;2022-10-15T07:43:07;55.83;;;30.10;;
3321;SDS011;1673;51.388;7.086;2022-10-15T07:45:38;55.13;;;28.63;;
3321;SDS011;1673;51.388;7.086;2022-10-15T07:48:08;65.20;;;30.65;;
3321;SDS011;1673;51.388;7.086;2022-10-15T07:50:37;55.43;;;29.40;;
3321;SDS011;1673;51.388;7.086;2022-10-15T07:53:07;57.45;;;30.83;;
3321;SDS011;1673;51.388;7.086;2022-10-15T07:55:40;57.38;;;30.42;;
3321;SDS011;1673;51.388;7.086;2022-10-15T07:58:10;49.03;;;26.55;;
3321;SDS011;1673;51.388;7.086;2022-10-15T08:00:39;42.83;;;25.40;;
3321;SDS011;1673;51.388;7.086;2022-10-15T08:03:09;42.90;;;25.60;;
3321;SDS011;1673;51.388;7.086;2022-10-15T08:05:39;41.30;;;23.83;;
3321;SDS011;1673;51.388;7.086;2022-10-15T08:08:08;42.57;;;23.93;;
3321;SDS011;1673;51.388;7.086;2022-10-15T08:10:40;30.90;;;19.13;;
3321;SDS011;1673;51.388;7.086;2022-10-15T08:13:10;29.48;;;17.50;;
3321;SDS011;1673;51.388;7.086;2022-10-15T08:15:43;29.85;;;17.58;;
3321;SDS011;1673;51.388;7.086;2022-10-15T08:18:12;27.70;;;17.60;;
3321;SDS011;1673;51.388;7.086;2022-10-15T08:20:42;27.08;;;15.95;;
3321;SDS011;1673;51.388;7.086;2022-10-15T08:23:13;29.73;;;17.15;;
3321;SDS011;1673;51.388;7.086;2022-10-15T08:25:45;27.47;;;16.80;;
3321;SDS011;1673;51.388;7.086;2022-10-15T08:28:15;31.23;;;18.30;;
3321;SDS011;1673;51.388;7.086;2022-10-15T08:30:45;31.25;;;18.58;;
3321;SDS011;1673;51.388;7.086;2022-10-15T08:33:14;28.63;;;18.15;;
3321;SDS011;1673;51.388;7.086;2022-10-15T08:35:44;26.20;;;16.20;;
3321;SDS011;1673;51.388;7.086;2022-10-15T08:38:13;28.10;;;15.48;;
3321;SDS011;1673;51.388;7.086;2022-10-15T08:40:48;25.83;;;15.60;;
3321;SDS011;1673;51.388;7.086;2022-10-15T08:43:21;21.08;;;13.95;;
3321;SDS011;1673;51.388;7.086;2022-10-15T08:45:53;20.80;;;12.57;;
3321;SDS011;1673;51.388;7.086;2022-10-15T08:48:27;20.08;;;11.80;;
3321;SDS011;1673;51.388;7.086;2022-10-15T08:50:59;20.35;;;11.30;;
3321;SDS011;1673;51.388;7.086;2022-10-15T08:53:32;17.98;;;10.20;;
3321;SDS011;1673;51.388;7.086;2022-10-15T08:56:10;13.32;;;8.48;;
3321;SDS011;1673;51.388;7.086;2022-10-15T08:58:44;12.60;;;8.73;;
3321;SDS011;1673;51.388;7.086;2022-10-15T09:01:17;11.02;;;7.20;;
3321;SDS011;1673;51.388;7.086;2022-10-15T09:03:51;9.97;;;5.70;;
3321;SDS011;1673;51.388;7.086;2022-10-15T09:06:28;8.38;;;5.50;;
3321;SDS011;1673;51.388;7.086;2022-10-15T09:09:03;10.25;;;4.45;;
3321;SDS011;1673;51.388;7.086;2022-10-15T09:11:41;7.25;;;4.40;;
3321;SDS011;1673;51.388;7.086;2022-10-15T09:14:15;7.75;;;4.15;;
3321;SDS011;1673;51.388;7.086;2022-10-15T09:16:47;6.45;;;3.50;;
3321;SDS011;1673;51.388;7.086;2022-10-15T09:19:18;5.38;;;3.60;;
3321;SDS011;1673;51.388;7.086;2022-10-15T09:21:49;5.05;;;2.63;;
3321;SDS011;1673;51.388;7.086;2022-10-15T09:24:20;3.92;;;2.05;;
3321;SDS011;1673;51.388;7.086;2022-10-15T09:26:59;4.40;;;2.80;;
3321;SDS011;1673;51.388;7.086;2022-10-15T09:29:34;4.00;;;2.30;;
3321;SDS011;1673;51.388;7.086;2022-10-15T09:32:11;4.13;;;1.83;;
3321;SDS011;1673;51.388;7.086;2022-10-15T09:34:44;2.80;;;1.80;;
3321;SDS011;1673;51.388;7.086;2022-10-15T09:37:17;3.57;;;2.20;;
3321;SDS011;1673;51.388;7.086;2022-10-15T09:43:00;3.00;;;1.63;;
3321;SDS011;1673;51.388;7.086;2022-10-15T09:45:30;5.00;;;1.60;;
3321;SDS011;1673;51.388;7.086;2022-10-15T09:48:00;2.20;;;1.23;;
3321;SDS011;1673;51.388;7.086;2022-10-15T09:50:33;2.60;;;1.25;;
3321;SDS011;1673;51.388;7.086;2022-10-15T09:53:11;2.40;;;1.40;;
3321;SDS011;1673;51.388;7.086;2022-10-15T09:55:52;3.40;;;1.17;;
3321;SDS011;1673;51.388;7.086;2022-10-15T09:58:39;2.60;;;1.00;;
3321;SDS011;1673;51.388;7.086;2022-10-15T10:01:16;2.87;;;0.93;;
3321;SDS011;1673;51.388;7.086;2022-10-15T10:03:49;1.90;;;0.98;;
3321;SDS011;1673;51.388;7.086;2022-10-15T10:06:20;2.30;;;1.00;;
3321;SDS011;1673;51.388;7.086;2022-10-15T10:08:52;2.20;;;1.00;;
3321;SDS011;1673;51.388;7.086;2022-10-15T10:11:25;2.38;;;1.00;;
3321;SDS011;1673;51.388;7.086;2022-10-15T10:13:58;3.78;;;1.20;;
3321;SDS011;1673;51.388;7.086;2022-10-15T10:16:29;2.00;;;1.00;;
3321;SDS011;1673;51.388;7.086;2022-10-15T10:19:04;2.30;;;1.10;;
3321;SDS011;1673;51.388;7.086;2022-10-15T10:21:39;3.40;;;1.10;;
3321;SDS011;1673;51.388;7.086;2022-10-15T10:24:24;2.20;;;1.20;;
3321;SDS011;1673;51.388;7.086;2022-10-15T10:26:57;2.75;;;1.00;;
3321;SDS011;1673;51.388;7.086;2022-10-15T10:29:30;3.00;;;1.10;;
3321;SDS011;1673;51.388;7.086;2022-10-15T10:32:08;3.70;;;1.23;;
3321;SDS011;1673;51.388;7.086;2022-10-15T10:34:40;2.25;;;1.00;;
3321;SDS011;1673;51.388;7.086;2022-10-15T10:37:17;3.05;;;1.10;;
3321;SDS011;1673;51.388;7.086;2022-10-15T10:39:51;2.35;;;1.20;;
3321;SDS011;1673;51.388;7.086;2022-10-15T10:42:23;12.77;;;1.30;;
3321;SDS011;1673;51.388;7.086;2022-10-15T10:45:13;2.17;;;1.20;;
3321;SDS011;1673;51.388;7.086;2022-10-15T10:47:46;2.20;;;1.10;;
3321;SDS011;1673;51.388;7.086;2022-10-15T10:50:26;2.30;;;1.10;;
3321;SDS011;1673;51.388;7.086;2022-10-15T10:52:57;3.50;;;0.90;;
3321;SDS011;1673;51.388;7.086;2022-10-15T10:55:39;2.60;;;1.50;;
3321;SDS011;1673;51.388;7.086;2022-10-15T10:58:11;4.30;;;1.30;;
3321;SDS011;1673;51.388;7.086;2022-10-15T11:00:55;2.70;;;1.00;;
3321;SDS011;1673;51.388;7.086;2022-10-15T11:03:29;2.90;;;1.13;;
3321;SDS011;1673;51.388;7.086;2022-10-15T11:06:06;3.25;;;1.17;;
3321;SDS011;1673;51.388;7.086;2022-10-15T11:08:42;2.70;;;1.20;;
3321;SDS011;1673;51.388;7.086;2022-10-15T11:11:20;2.07;;;1.10;;
3321;SDS011;1673;51.388;7.086;2022-10-15T11:13:54;2.50;;;1.30;;
3321;SDS011;1673;51.388;7.086;2022-10-15T11:16:34;5.03;;;1.10;;
3321;SDS011;1673;51.388;7.086;2022-10-15T11:19:12;3.08;;;1.10;;
3321;SDS011;1673;51.388;7.086;2022-10-15T11:22:14;2.30;;;1.30;;
3321;SDS011;1673;51.388;7.086;2022-10-15T11:24:57;3.00;;;1.30;;
3321;SDS011;1673;51.388;7.086;2022-10-15T11:27:39;2.50;;;1.30;;
3321;SDS011;1673;51.388;7.086;2022-10-15T11:30:18;3.08;;;1.40;;
3321;SDS011;1673;51.388;7.086;2022-10-15T11:33:03;3.45;;;1.40;;
3321;SDS011;1673;51.388;7.086;2022-10-15T11:35:43;12.55;;;2.08;;
3321;SDS011;1673;51.388;7.086;2022-10-15T11:38:22;3.42;;;1.60;;
3321;SDS011;1673;51.388;7.086;2022-10-15T11:41:03;4.25;;;1.40;;
3321;SDS011;1673;51.388;7.086;2022-10-15T11:43:43;4.07;;;1.20;;
3321;SDS011;1673;51.388;7.086;2022-10-15T11:46:23;4.10;;;1.50;;
3321;SDS011;1673;51.388;7.086;2022-10-15T11:49:06;3.70;;;1.60;;
3321;SDS011;1673;51.388;7.086;2022-10-15T11:51:47;5.03;;;1.65;;
3321;SDS011;1673;51.388;7.086;2022-10-15T11:54:27;3.05;;;1.67;;
3321;SDS011;1673;51.388;7.086;2022-10-15T11:57:02;2.35;;;1.50;;
3321;SDS011;1673;51.388;7.086;2022-10-15T11:59:33;2.55;;;1.50;;
3321;SDS011;1673;51.388;7.086;2022-10-15T12:02:07;4.22;;;1.90;;
3321;SDS011;1673;51.388;7.086;2022-10-15T12:04:43;5.50;;;1.70;;
3321;SDS011;1673;51.388;7.086;2022-10-15T12:07:16;2.50;;;1.50;;
3321;SDS011;1673;51.388;7.086;2022-10-15T12:09:50;3.03;;;1.70;;
3321;SDS011;1673;51.388;7.086;2022-10-15T12:12:25;3.93;;;1.60;;
3321;SDS011;1673;51.388;7.086;2022-10-15T12:15:04;2.30;;;1.40;;
3321;SDS011;1673;51.388;7.086;2022-10-15T12:17:41;3.15;;;1.55;;
3321;SDS011;1673;51.388;7.086;2022-10-15T12:20:17;3.40;;;1.45;;
3321;SDS011;1673;51.388;7.086;2022-10-15T12:22:54;2.50;;;1.40;;
3321;SDS011;1673;51.388;7.086;2022-10-15T12:28:13;2.40;;;1.20;;
3321;SDS011;1673;51.388;7.086;2022-10-15T12:33:36;3.50;;;1.60;;
3321;SDS011;1673;51.388;7.086;2022-10-15T12:36:20;4.10;;;1.40;;
3321;SDS011;1673;51.388;7.086;2022-10-15T12:38:57;2.60;;;1.20;;
3321;SDS011;1673;51.388;7.086;2022-10-15T12:41:42;3.70;;;1.60;;
3321;SDS011;1673;51.388;7.086;2022-10-15T12:44:14;2.20;;;1.30;;
3321;SDS011;1673;51.388;7.086;2022-10-15T12:46:49;2.60;;;1.48;;
3321;SDS011;1673;51.388;7.086;2022-10-15T12:55:18;3.95;;;1.60;;
3321;SDS011;1673;51.388;7.086;2022-10-15T12:57:52;4.13;;;1.30;;
3321;SDS011;1673;51.388;7.086;2022-10-15T13:00:39;3.28;;;1.20;;
3321;SDS011;1673;51.388;7.086;2022-10-15T13:03:15;3.40;;;1.50;;
3321;SDS011;1673;51.388;7.086;2022-10-15T13:06:21;4.53;;;1.40;;
3321;SDS011;1673;51.388;7.086;2022-10-15T13:08:54;2.13;;;1.27;;
3321;SDS011;1673;51.388;7.086;2022-10-15T13:11:26;3.00;;;1.30;;
3321;SDS011;1673;51.388;7.086;2022-10-15T13:14:00;2.10;;;1.05;;
3321;SDS011;1673;51.388;7.086;2022-10-15T13:16:34;2.90;;;1.38;;
3321;SDS011;1673;51.388;7.086;2022-10-15T13:19:04;2.13;;;1.03;;
3321;SDS011;1673;51.388;7.086;2022-10-15T13:21:46;3.47;;;1.27;;
3321;SDS011;1673;51.388;7.086;2022-10-15T13:24:18;3.55;;;1.00;;
3321;SDS011;1673;51.388;7.086;2022-10-15T13:26:49;2.67;;;1.17;;
3321;SDS011;1673;51.388;7.086;2022-10-15T13:29:20;2.45;;;1.20;;
3321;SDS011;1673;51.388;7.086;2022-10-15T13:31:54;2.03;;;1.10;;
3321;SDS011;1673;51.388;7.086;2022-10-15T13:34:26;5.97;;;1.73;;
3321;SDS011;1673;51.388;7.086;2022-10-15T13:36:58;2.08;;;1.10;;
3321;SDS011;1673;51.388;7.086;2022-10-15T13:39:29;2.97;;;1.20;;
3321;SDS011;1673;51.388;7.086;2022-10-15T13:42:05;2.30;;;1.20;;
3321;SDS011;1673;51.388;7.086;2022-10-15T13:44:36;3.30;;;1.40;;
3321;SDS011;1673;51.388;7.086;2022-10-15T13:47:24;4.68;;;1.58;;
3321;SDS011;1673;51.388;7.086;2022-10-15T13:52:46;3.70;;;1.30;;
3321;SDS011;1673;51.388;7.086;2022-10-15T13:55:21;5.20;;;1.60;;
3321;SDS011;1673;51.388;7.086;2022-10-15T13:57:55;2.72;;;1.30;;
3321;SDS011;1673;51.388;7.086;2022-10-15T14:00:28;3.15;;;1.40;;
3321;SDS011;1673;51.388;7.086;2022-10-15T14:03:11;4.18;;;1.45;;
3321;SDS011;1673;51.388;7.086;2022-10-15T14:05:43;4.20;;;1.50;;
3321;SDS011;1673;51.388;7.086;2022-10-15T14:08:14;2.80;;;1.52;;
3321;SDS011;1673;51.388;7.086;2022-10-15T14:10:48;2.33;;;1.40;;
3321;SDS011;1673;51.388;7.086;2022-10-15T14:13:18;2.38;;;1.40;;
3321;SDS011;1673;51.388;7.086;2022-10-15T14:15:58;4.20;;;1.30;;
3321;SDS011;1673;51.388;7.086;2022-10-15T14:18:34;4.68;;;1.27;;
3321;SDS011;1673;51.388;7.086;2022-10-15T14:21:09;2.70;;;1.20;;
3321;SDS011;1673;51.388;7.086;2022-10-15T14:23:39;2.95;;;1.30;;
3321;SDS011;1673;51.388;7.086;2022-10-15T14:26:10;3.05;;;1.20;;
3321;SDS011;1673;51.388;7.086;2022-10-15T14:28:42;3.97;;;1.40;;
3321;SDS011;1673;51.388;7.086;2022-10-15T14:31:25;3.20;;;1.20;;
3321;SDS011;1673;51.388;7.086;2022-10-15T14:34:01;2.65;;;1.50;;
3321;SDS011;1673;51.388;7.086;2022-10-15T14:36:31;2.15;;;1.27;;
3321;SDS011;1673;51.388;7.086;2022-10-15T14:39:17;2.90;;;1.43;;
3321;SDS011;1673;51.388;7.086;2022-10-15T14:41:55;4.15;;;1.50;;
3321;SDS011;1673;51.388;7.086;2022-10-15T14:44:38;3.10;;;1.50;;
3321;SDS011;1673;51.388;7.086;2022-10-15T14:47:09;2.50;;;1.30;;
3321;SDS011;1673;51.388;7.086;2022-10-15T14:49:48;3.10;;;1.60;;
3321;SDS011;1673;51.388;7.086;2022-10-15T14:52:19;3.63;;;1.70;;
3321;SDS011;1673;51.388;7.086;2022-10-15T14:54:58;3.80;;;1.70;;
3321;SDS011;1673;51.388;7.086;2022-10-15T14:57:33;4.63;;;1.85;;
3321;SDS011;1673;51.388;7.086;2022-10-15T15:00:04;4.35;;;1.70;;
3321;SDS011;1673;51.388;7.086;2022-10-15T15:02:42;3.17;;;1.67;;
3321;SDS011;1673;51.388;7.086;2022-10-15T15:05:23;3.15;;;1.70;;
3321;SDS011;1673;51.388;7.086;2022-10-15T15:07:55;4.78;;;1.70;;
3321;SDS011;1673;51.388;7.086;2022-10-15T15:10:31;3.60;;;1.80;;
3321;SDS011;1673;51.388;7.086;2022-10-15T15:13:01;3.90;;;1.90;;
3321;SDS011;1673;51.388;7.086;2022-10-15T15:15:32;3.75;;;2.00;;
3321;SDS011;1673;51.388;7.086;2022-10-15T15:18:01;4.68;;;2.30;;
3321;SDS011;1673;51.388;7.086;2022-10-15T15:20:33;6.70;;;2.43;;
3321;SDS011;1673;51.388;7.086;2022-10-15T15:23:03;4.00;;;1.70;;
3321;SDS011;1673;51.388;7.086;2022-10-15T15:25:33;3.15;;;1.60;;
3321;SDS011;1673;51.388;7.086;2022-10-15T15:28:05;2.55;;;1.40;;
3321;SDS011;1673;51.388;7.086;2022-10-15T15:30:38;4.80;;;1.40;;
3321;SDS011;1673;51.388;7.086;2022-10-15T15:33:09;4.10;;;1.40;;
3321;SDS011;1673;51.388;7.086;2022-10-15T15:35:43;6.15;;;1.60;;
3321;SDS011;1673;51.388;7.086;2022-10-15T15:38:16;2.15;;;1.20;;
3321;SDS011;1673;51.388;7.086;2022-10-15T15:40:47;2.50;;;1.60;;
3321;SDS011;1673;51.388;7.086;2022-10-15T15:43:17;2.70;;;1.50;;
3321;SDS011;1673;51.388;7.086;2022-10-15T15:45:47;2.88;;;1.65;;
3321;SDS011;1673;51.388;7.086;2022-10-15T15:48:16;3.25;;;1.60;;
3321;SDS011;1673;51.388;7.086;2022-10-15T15:50:49;2.90;;;1.50;;
3321;SDS011;1673;51.388;7.086;2022-10-15T15:53:18;2.47;;;1.30;;
3321;SDS011;1673;51.388;7.086;2022-10-15T15:55:48;3.00;;;1.45;;
3321;SDS011;1673;51.388;7.086;2022-10-15T15:58:17;5.70;;;1.70;;
3321;SDS011;1673;51.388;7.086;2022-10-15T16:00:47;3.00;;;1.70;;
3321;SDS011;1673;51.388;7.086;2022-10-15T16:03:16;4.40;;;1.70;;
3321;SDS011;1673;51.388;7.086;2022-10-15T16:05:48;3.17;;;1.80;;
3321;SDS011;1673;51.388;7.086;2022-10-15T16:08:19;5.97;;;1.80;;